»·PEaware :: N121LW KTNP-KMCC

N121LW :: KTNP-KMCC

FLIGHT INFORMATION

Flight Status: Arrived
Operator: Privately registered:
United States
More flights under this callsign
Pilot: Lee W. (44)
Aircraft: CANADAIR CL-600 CRJ-200
(CRJ2)
More flights by this aircraft type
Origin: KTNP Twentynine Palms
United States
Destination: KMCC McClellan
United States
More flights between these airports :: More routes between these airports
Route: +PMD EHF VIS HYP ECA MCC
File this flight plan on PilotEdge
Remarks:
Altitude:
(Current/Filed)
28,000ft
Speed:
(Current/Filed)
425kts
Departed: 27-Oct-12 07:15 AM
Arrived: 27-Oct-12 08:29 AM
Distance/Time
Traveled:
379nm/1:14
Distance/Time
To Go:
Arrived

Flight Plot

Page will automatically refresh every two minutes.


Map Options




Map Legend


Flown Route
Filed Route
Departure Airport
Arrival Airport
Navaid (VOR, NDB)
Fix

Horizontal Profiles

Position Reports

Time Latitude Longitude Heading Altitude Ground
Speed
27-Oct-12 07:01 34.134438 -115.935373 269 1892ft 0kts
27-Oct-12 07:02 34.134438 -115.935373 269 1892ft 0kts
27-Oct-12 07:03 34.134438 -115.935373 269 1892ft 0kts
27-Oct-12 07:04 34.134438 -115.935373 269 1892ft 0kts
27-Oct-12 07:05 34.134438 -115.935373 269 1892ft 0kts
27-Oct-12 07:06 34.133584 -115.935341 359 1892ft 0kts
27-Oct-12 07:07 34.133584 -115.935341 359 1892ft 0kts
27-Oct-12 07:08 34.133584 -115.935341 359 1892ft 0kts
27-Oct-12 07:09 34.133584 -115.935341 359 1892ft 0kts
27-Oct-12 07:10 34.133584 -115.935341 359 1892ft 0kts
27-Oct-12 07:11 34.133584 -115.935341 359 1892ft 0kts
27-Oct-12 07:12 34.133584 -115.935341 359 1892ft 0kts
27-Oct-12 07:13 34.133584 -115.935341 359 1892ft 0kts
27-Oct-12 07:14 34.133584 -115.935341 359 1892ft 0kts
27-Oct-12 07:15 34.133584 -115.935341 359 1892ft 0kts
27-Oct-12 07:16 34.133584 -115.935341 359 1892ft 0kts
27-Oct-12 07:17 34.134299 -115.935256 323 1892ft 0kts
27-Oct-12 07:18 34.133940 -115.969893 267 2199ft 175kts
27-Oct-12 07:19 34.131902 -116.017036 267 3418ft 218kts
27-Oct-12 07:20 34.129902 -116.085926 290 6307ft 210kts
27-Oct-12 07:21 34.169678 -116.070520 98 8405ft 234kts
27-Oct-12 07:22 34.150058 -116.010234 111 9989ft 240kts
27-Oct-12 07:23 34.123741 -115.933764 112 11334ft 266kts
27-Oct-12 07:24 34.088336 -115.937133 285 11499ft 277kts
27-Oct-12 07:25 34.129726 -116.017534 292 12925ft 290kts
27-Oct-12 07:26 34.157290 -116.114313 288 13493ft 341kts
27-Oct-12 07:27 34.183939 -116.217326 287 15216ft 349kts
27-Oct-12 07:28 34.212180 -116.329873 287 16820ft 357kts
27-Oct-12 07:29 34.241076 -116.445793 287 18249ft 365kts
27-Oct-12 07:30 34.270259 -116.563388 287 19491ft 372kts
27-Oct-12 07:31 34.300030 -116.683751 287 20726ft 375kts
27-Oct-12 07:32 34.329863 -116.805012 286 21858ft 378kts
27-Oct-12 07:33 34.359767 -116.927368 286 22780ft 384kts
27-Oct-12 07:34 34.390331 -117.052836 287 23382ft 397kts
27-Oct-12 07:35 34.415462 -117.154464 286 23882ft 405kts
27-Oct-12 07:36 34.433566 -117.228732 286 24347ft 407kts
27-Oct-12 07:37 34.455902 -117.321372 286 24872ft 411kts
27-Oct-12 07:38 34.487469 -117.453018 286 25555ft 415kts
27-Oct-12 07:39 34.519509 -117.587349 286 26185ft 419kts
27-Oct-12 07:40 34.551208 -117.720795 285 26550ft 428kts
27-Oct-12 07:41 34.581720 -117.850208 285 27350ft 423kts
27-Oct-12 07:42 34.613877 -117.987210 285 27809ft 427kts
27-Oct-12 07:43 34.668766 -118.107353 313 28139ft 434kts
27-Oct-12 07:44 34.748914 -118.203849 314 28203ft 442kts
27-Oct-12 07:45 34.835937 -118.308281 314 28200ft 443kts
27-Oct-12 07:46 34.923702 -118.413968 314 28199ft 445kts
27-Oct-12 07:47 35.011420 -118.519987 315 28209ft 448kts
27-Oct-12 07:48 35.100323 -118.627721 316 28208ft 452kts
27-Oct-12 07:49 35.188903 -118.735284 315 28173ft 453kts
27-Oct-12 07:50 35.269510 -118.833635 315 28140ft 452kts
27-Oct-12 07:51 35.354946 -118.938173 315 28139ft 451kts
27-Oct-12 07:52 35.442310 -119.045392 315 28139ft 450kts
27-Oct-12 07:53 35.544189 -119.122251 339 28142ft 448kts
27-Oct-12 07:54 35.654843 -119.170488 340 28140ft 448kts
27-Oct-12 07:55 35.772076 -119.221337 340 28154ft 448kts
27-Oct-12 07:56 35.889710 -119.272511 340 28169ft 448kts
27-Oct-12 07:57 36.006415 -119.323441 340 28168ft 448kts
27-Oct-12 07:58 36.123366 -119.374660 340 28165ft 448kts
27-Oct-12 07:59 36.240911 -119.426251 340 28164ft 449kts
27-Oct-12 08:00 36.358110 -119.478628 333 28141ft 448kts
27-Oct-12 08:01 36.454560 -119.574962 319 28160ft 447kts
27-Oct-12 08:02 36.548415 -119.675032 319 28159ft 448kts
27-Oct-12 08:03 36.636812 -119.769607 319 28159ft 449kts
27-Oct-12 08:04 36.730025 -119.869678 319 28157ft 450kts
27-Oct-12 08:05 36.823137 -119.969995 319 27333ft 443kts
27-Oct-12 08:06 36.915027 -120.069334 319 25864ft 433kts
27-Oct-12 08:07 37.003269 -120.163972 319 24526ft 425kts
27-Oct-12 08:08 37.091862 -120.260211 318 23234ft 416kts
27-Oct-12 08:09 37.178182 -120.354407 318 22035ft 409kts
27-Oct-12 08:10 37.260562 -120.450926 315 20908ft 402kts
27-Oct-12 08:11 37.339382 -120.549255 315 19877ft 395kts
27-Oct-12 08:12 37.417972 -120.647413 315 18912ft 390kts
27-Oct-12 08:13 37.493974 -120.742622 315 17706ft 382kts
27-Oct-12 08:14 37.563602 -120.830122 315 16212ft 375kts
27-Oct-12 08:15 37.632867 -120.917427 315 14808ft 367kts
27-Oct-12 08:16 37.692480 -120.992734 315 13652ft 361kts
27-Oct-12 08:17 37.773949 -121.095942 315 12161ft 353kts
27-Oct-12 08:18 37.841513 -121.169585 342 11008ft 347kts
27-Oct-12 08:19 37.934092 -121.198644 347 9909ft 341kts
27-Oct-12 08:20 38.010474 -121.219974 347 9058ft 337kts
27-Oct-12 08:21 38.100912 -121.245109 347 8108ft 333kts
27-Oct-12 08:22 38.190545 -121.270071 347 7221ft 329kts
27-Oct-12 08:23 38.278865 -121.294727 347 6402ft 325kts
27-Oct-12 08:24 38.348678 -121.314261 347 5796ft 322kts
27-Oct-12 08:25 38.430134 -121.340623 338 5053ft 269kts
27-Oct-12 08:26 38.489075 -121.369860 338 4995ft 194kts
27-Oct-12 08:27 38.532906 -121.391680 338 3338ft 185kts
27-Oct-12 08:28 38.566916 -121.400589 359 2529ft 143kts
27-Oct-12 08:29 38.600177 -121.400576 359 1200ft 154kts
27-Oct-12 08:30 38.633628 -121.400761 0 479ft 142kts
27-Oct-12 08:31 38.665947 -121.400599 2 80ft 68kts
27-Oct-12 08:32 38.667663 -121.401970 271 80ft 0kts

Navigation Log

Ident Type
Flight plan parsing failed, navigation log unavailable